Time;durP1;ratioP1;P1;durP2;ratioP2;P2;SDS_P1;SDS_P2;PMS_P1;PMS_P2;Temp;Humidity;BMP_temperature;BMP_pressure;BME280_temperature;BME280_humidity;BME280_pressure;Samples;Min_cycle;Max_cycle;Signal;HPM_P1;HPM_P2
2021/03/31 00:02:18;;;;;;;20.43;14.77;;;8.30;1.00;;;;;;5030043;28;20426;-77
2021/03/31 00:04:44;;;;;;;20.13;15.10;;;8.20;1.00;;;;;;5039149;28;20212;-77
2021/03/31 00:07:11;;;;;;;23.93;14.13;;;8.20;1.00;;;;;;5051334;28;20216;-77
2021/03/31 00:09:40;;;;;;;23.40;15.60;;;8.20;1.00;;;;;;5060287;28;20296;-76
2021/03/31 00:12:07;;;;;;;25.70;15.10;;;8.20;1.00;;;;;;5041029;28;20568;-77
2021/03/31 00:14:33;;;;;;;23.60;14.23;;;8.20;1.00;;;;;;5040533;28;20502;-77
2021/03/31 00:16:59;;;;;;;21.20;15.20;;;8.20;1.00;;;;;;5058846;28;20844;-77
2021/03/31 00:19:25;;;;;;;23.60;16.10;;;8.10;1.00;;;;;;5056072;28;20453;-77
2021/03/31 00:21:50;;;;;;;26.23;16.07;;;8.00;1.00;;;;;;5015371;28;20202;-76
2021/03/31 00:24:16;;;;;;;24.33;15.97;;;8.00;1.00;;;;;;5011325;28;20217;-76
2021/03/31 00:26:41;;;;;;;24.37;16.37;;;8.00;1.00;;;;;;5039152;28;20218;-77
2021/03/31 00:29:07;;;;;;;25.47;15.20;;;7.90;1.00;;;;;;5058435;28;20259;-77
2021/03/31 00:31:33;;;;;;;27.83;15.83;;;7.90;1.00;;;;;;5033499;28;20335;-77
2021/03/31 00:33:59;;;;;;;34.40;17.87;;;7.80;1.00;;;;;;5009830;28;20294;-76
2021/03/31 00:36:24;;;;;;;29.67;16.90;;;7.80;20.60;;;;;;5041386;28;20254;-77
2021/03/31 00:38:50;;;;;;;24.60;15.07;;;7.90;97.40;;;;;;5021085;28;20570;-76
2021/03/31 00:41:16;;;;;;;26.37;16.17;;;7.80;60.80;;;;;;5036101;28;20308;-76
2021/03/31 00:43:41;;;;;;;27.27;16.60;;;7.80;74.90;;;;;;5054477;28;20744;-76
2021/03/31 00:46:07;;;;;;;35.10;16.70;;;7.70;99.90;;;;;;5052293;28;20244;-76
2021/03/31 00:48:33;;;;;;;27.83;17.23;;;7.80;99.90;;;;;;5024375;28;20287;-76
2021/03/31 00:51:00;;;;;;;21.27;14.73;;;7.70;99.90;;;;;;5051253;28;20218;-76
2021/03/31 00:53:30;;;;;;;24.63;15.37;;;7.70;91.10;;;;;;5037216;28;20252;-76
2021/03/31 00:55:56;;;;;;;23.50;16.00;;;7.50;99.90;;;;;;5035143;28;20514;-76
2021/03/31 00:58:22;;;;;;;27.80;17.00;;;7.40;99.90;;;;;;5053030;28;20430;-76
2021/03/31 01:00:47;;;;;;;29.17;18.07;;;7.40;99.90;;;;;;5007292;28;20488;-76
2021/03/31 01:03:13;;;;;;;25.37;15.37;;;7.30;99.90;;;;;;5054728;28;20206;-75
2021/03/31 01:05:40;;;;;;;24.63;16.03;;;7.20;99.90;;;;;;5043696;28;20213;-76
2021/03/31 01:08:07;;;;;;;21.30;16.63;;;7.20;99.90;;;;;;5020706;28;20331;-76
2021/03/31 01:10:49;;;;;;;20.93;16.33;;;7.20;99.90;;;;;;5039474;28;20497;-76
2021/03/31 01:13:23;;;;;;;24.93;16.53;;;7.30;99.90;;;;;;5030913;28;20390;-76
2021/03/31 01:16:02;;;;;;;24.40;16.73;;;7.20;99.90;;;;;;5026245;28;20442;-76
2021/03/31 01:18:36;;;;;;;30.00;16.30;;;7.20;99.90;;;;;;5055096;28;20426;-76
2021/03/31 01:21:29;;;;;;;27.70;16.90;;;7.10;99.90;;;;;;5039149;28;20455;-76
2021/03/31 01:24:17;;;;;;;23.37;15.20;;;7.30;99.90;;;;;;5034506;28;20468;-76
2021/03/31 01:26:51;;;;;;;22.60;15.50;;;7.20;99.90;;;;;;5037141;28;20511;-76
2021/03/31 01:29:20;;;;;;;23.17;14.47;;;7.30;99.90;;;;;;5051253;28;20406;-76
2021/03/31 01:32:13;;;;;;;23.17;14.53;;;7.20;99.90;;;;;;5054028;28;20444;-76
2021/03/31 01:34:44;;;;;;;21.40;15.70;;;7.10;99.90;;;;;;5034434;28;20414;-76
2021/03/31 01:37:21;;;;;;;31.13;16.63;;;7.10;99.90;;;;;;5037283;28;20427;-76
2021/03/31 01:39:50;;;;;;;23.17;14.87;;;7.10;99.90;;;;;;5020142;28;20398;-76
2021/03/31 01:42:18;;;;;;;22.80;15.40;;;7.10;99.90;;;;;;5054877;28;20429;-76
2021/03/31 01:44:45;;;;;;;21.17;15.47;;;7.20;99.90;;;;;;5036279;28;20461;-75
2021/03/31 01:47:20;;;;;;;26.23;15.47;;;7.20;99.90;;;;;;5055525;28;20423;-75
2021/03/31 01:49:50;;;;;;;24.70;14.87;;;7.20;99.90;;;;;;5029280;28;20921;-76
2021/03/31 01:52:16;;;;;;;24.70;14.20;;;7.00;99.90;;;;;;5026348;28;21310;-75
2021/03/31 01:54:44;;;;;;;20.10;14.20;;;7.00;99.90;;;;;;5051212;28;20424;-76
2021/03/31 01:57:12;;;;;;;20.00;15.17;;;7.00;99.90;;;;;;5033968;28;20502;-75
2021/03/31 01:59:38;;;;;;;24.23;14.90;;;7.00;99.90;;;;;;5034388;28;20425;-75
2021/03/31 02:02:09;;;;;;;21.57;14.97;;;7.00;99.90;;;;;;5021752;28;20424;-75
2021/03/31 02:04:36;;;;;;;19.40;14.70;;;6.90;99.90;;;;;;5036351;28;20469;-75
2021/03/31 02:07:07;;;;;;;22.53;15.33;;;6.90;99.90;;;;;;5054893;28;20500;-76
2021/03/31 02:09:42;;;;;;;19.40;14.20;;;6.90;99.90;;;;;;5052752;28;20488;-76
2021/03/31 02:12:41;;;;;;;17.47;14.00;;;6.90;99.90;;;;;;5030403;28;20921;-75
2021/03/31 02:15:14;;;;;;;21.77;14.07;;;6.90;99.90;;;;;;4978618;28;20417;-75
2021/03/31 02:17:41;;;;;;;20.20;13.20;;;7.00;99.90;;;;;;4980676;28;20484;-75
2021/03/31 02:20:08;;;;;;;19.20;13.83;;;7.20;1.00;;;;;;4974042;28;20420;-75
2021/03/31 02:22:36;;;;;;;17.63;14.17;;;7.20;1.00;;;;;;4998447;28;21044;-75
2021/03/31 02:25:05;;;;;;;25.10;13.50;;;7.10;27.40;;;;;;5011391;28;20483;-75
2021/03/31 02:27:31;;;;;;;22.13;15.00;;;7.00;72.20;;;;;;4997564;28;20483;-77
2021/03/31 02:30:25;;;;;;;24.40;13.30;;;7.00;99.90;;;;;;4979011;28;20403;-77
2021/03/31 02:32:53;;;;;;;23.03;13.93;;;7.00;1.00;;;;;;4923243;28;20218;-76
2021/03/31 02:35:22;;;;;;;19.30;13.70;;;6.90;56.20;;;;;;4931083;28;20409;-76
2021/03/31 02:37:55;;;;;;;22.87;14.67;;;6.90;92.20;;;;;;4935923;28;20358;-77
2021/03/31 02:40:24;;;;;;;19.10;12.90;;;6.80;99.90;;;;;;4936869;28;20455;-77
2021/03/31 02:42:53;;;;;;;23.00;13.60;;;6.90;99.90;;;;;;4915444;28;20424;-77
2021/03/31 02:45:21;;;;;;;18.60;14.30;;;6.90;99.90;;;;;;4929783;28;20424;-77
2021/03/31 02:47:48;;;;;;;25.47;13.93;;;6.80;90.20;;;;;;4922170;28;21133;-77
2021/03/31 02:50:19;;;;;;;19.97;13.50;;;6.80;99.90;;;;;;4938371;28;21289;-77
2021/03/31 02:52:51;;;;;;;16.80;11.70;;;6.80;99.90;;;;;;4942187;28;20835;-77
2021/03/31 02:55:22;;;;;;;11.40;9.37;;;6.90;51.30;;;;;;4954818;28;20478;-77
2021/03/31 02:57:48;;;;;;;14.67;10.77;;;7.50;1.00;;;;;;4959674;28;20431;-77
2021/03/31 03:00:15;;;;;;;18.63;11.23;;;8.20;99.90;;;;;;4937019;28;20458;-77
2021/03/31 03:02:44;;;;;;;16.90;10.53;;;8.10;1.00;;;;;;4939064;28;20950;-77
2021/03/31 03:05:11;;;;;;;20.10;12.97;;;7.80;1.00;;;;;;4938963;28;20419;-77
2021/03/31 03:07:38;;;;;;;18.77;10.90;;;7.60;99.90;;;;;;4920902;28;20777;-76
2021/03/31 03:10:08;;;;;;;18.37;12.47;;;7.40;1.00;;;;;;5017506;28;20428;-76
2021/03/31 03:12:57;;;;;;;17.90;11.43;;;7.30;1.00;;;;;;5066108;28;20864;-76
2021/03/31 03:15:42;;;;;;;15.73;10.80;;;7.10;1.00;;;;;;5067740;28;21449;-77
2021/03/31 03:18:17;;;;;;;14.73;10.77;;;7.20;99.90;;;;;;5075031;28;20401;-77
2021/03/31 03:20:46;;;;;;;14.63;11.57;;;7.60;1.00;;;;;;5062393;28;20399;-76
2021/03/31 03:23:13;;;;;;;17.87;10.80;;;7.50;99.90;;;;;;5059728;28;20399;-76
2021/03/31 03:25:41;;;;;;;15.27;11.70;;;7.50;99.90;;;;;;5027016;28;20418;-77
2021/03/31 03:28:08;;;;;;;15.57;10.17;;;7.30;99.90;;;;;;5059776;28;20513;-77
2021/03/31 03:30:34;;;;;;;19.30;11.77;;;7.20;1.00;;;;;;5043153;28;20478;-77
2021/03/31 03:33:01;;;;;;;19.47;11.90;;;7.00;1.00;;;;;;5028847;28;20427;-77
2021/03/31 03:35:28;;;;;;;18.03;11.67;;;7.00;1.00;;;;;;5041306;28;20488;-77
2021/03/31 03:37:54;;;;;;;16.23;10.60;;;6.90;1.00;;;;;;5059001;28;20412;-77
2021/03/31 03:40:25;;;;;;;14.80;10.23;;;6.90;1.00;;;;;;5057068;28;20407;-77
2021/03/31 03:42:52;;;;;;;15.00;10.50;;;6.90;1.00;;;;;;5074717;28;20501;-77
2021/03/31 03:45:22;;;;;;;15.23;10.80;;;6.90;1.00;;;;;;5077482;28;20439;-77
2021/03/31 03:47:48;;;;;;;13.80;11.40;;;6.90;1.00;;;;;;5061138;28;20488;-77
2021/03/31 03:50:15;;;;;;;21.00;12.03;;;6.90;1.00;;;;;;5055998;28;21277;-77
2021/03/31 03:52:47;;;;;;;17.73;11.27;;;6.80;1.00;;;;;;5045005;28;20426;-77
2021/03/31 03:55:21;;;;;;;14.73;11.87;;;6.80;1.00;;;;;;5060624;28;21202;-77
2021/03/31 03:57:48;;;;;;;18.03;12.43;;;6.70;1.00;;;;;;5058265;28;20435;-77
2021/03/31 04:00:17;;;;;;;16.70;11.47;;;6.60;1.00;;;;;;5041304;28;20439;-77
2021/03/31 04:02:43;;;;;;;19.63;12.17;;;6.60;1.00;;;;;;5026624;28;20415;-77
2021/03/31 04:05:10;;;;;;;18.67;10.80;;;6.60;1.00;;;;;;5056017;28;20414;-77
2021/03/31 04:07:36;;;;;;;14.70;11.97;;;6.50;1.00;;;;;;5038863;28;20954;-77
2021/03/31 04:10:11;;;;;;;15.23;11.07;;;6.40;1.00;;;;;;5025104;28;20460;-77
2021/03/31 04:12:40;;;;;;;16.43;11.83;;;6.40;1.00;;;;;;5041369;28;20419;-77
2021/03/31 04:15:08;;;;;;;19.77;12.23;;;6.30;1.00;;;;;;5007834;28;20920;-77
2021/03/31 04:17:37;;;;;;;17.70;12.40;;;6.30;1.00;;;;;;5024843;28;20437;-77
2021/03/31 04:20:03;;;;;;;18.27;12.50;;;6.40;1.00;;;;;;5039229;28;20393;-77
2021/03/31 04:22:31;;;;;;;24.37;12.50;;;6.40;1.00;;;;;;5057890;28;20403;-77
2021/03/31 04:24:56;;;;;;;14.53;10.30;;;6.40;1.00;;;;;;5041949;28;20534;-77
2021/03/31 04:27:23;;;;;;;18.13;12.13;;;6.50;1.00;;;;;;5058610;28;20765;-77
2021/03/31 04:29:50;;;;;;;14.53;11.47;;;6.50;1.00;;;;;;5061819;28;20620;-77
2021/03/31 04:32:23;;;;;;;20.80;11.83;;;6.70;1.00;;;;;;5050745;28;20418;-77
2021/03/31 04:34:51;;;;;;;14.40;11.23;;;6.70;99.90;;;;;;5032586;28;20967;-77
2021/03/31 04:37:17;;;;;;;15.20;10.90;;;6.60;1.00;;;;;;5061551;28;20409;-77
2021/03/31 04:39:44;;;;;;;15.83;11.50;;;6.70;1.00;;;;;;5040302;28;20397;-77
2021/03/31 04:42:12;;;;;;;14.40;10.27;;;6.70;1.00;;;;;;5059400;28;20254;-77
2021/03/31 04:44:38;;;;;;;12.60;8.20;;;6.80;99.90;;;;;;5022801;28;20557;-77
2021/03/31 04:47:05;;;;;;;17.27;10.00;;;6.90;1.00;;;;;;5024925;28;20435;-77
2021/03/31 04:49:31;;;;;;;11.47;10.23;;;6.80;99.90;;;;;;5038606;28;20214;-78
2021/03/31 04:51:58;;;;;;;11.80;8.77;;;7.10;99.90;;;;;;5042573;28;20496;-77
2021/03/31 04:54:23;;;;;;;13.60;8.60;;;7.10;1.00;;;;;;5057065;28;20217;-78
2021/03/31 04:56:49;;;;;;;12.67;9.30;;;7.20;97.20;;;;;;5042010;28;22698;-77
2021/03/31 04:59:15;;;;;;;14.27;9.17;;;7.20;1.00;;;;;;5023327;28;20232;-79
2021/03/31 05:01:40;;;;;;;12.83;9.10;;;7.20;99.90;;;;;;5044006;28;20210;-78
2021/03/31 05:04:06;;;;;;;14.07;8.83;;;7.50;99.90;;;;;;5041782;28;20308;-77
2021/03/31 05:06:32;;;;;;;17.13;8.67;;;7.30;1.00;;;;;;5005362;28;20194;-78
2021/03/31 05:08:57;;;;;;;10.83;8.30;;;7.30;26.40;;;;;;5033387;28;20453;-78
2021/03/31 05:11:25;;;;;;;13.67;8.47;;;7.20;1.00;;;;;;5041663;28;20217;-77
2021/03/31 05:13:51;;;;;;;11.20;7.90;;;7.30;1.00;;;;;;5038603;28;20224;-77
2021/03/31 05:16:18;;;;;;;9.37;7.40;;;7.40;1.00;;;;;;5039567;28;20562;-77
2021/03/31 05:18:44;;;;;;;14.30;8.47;;;7.50;1.00;;;;;;5040002;28;20271;-77
2021/03/31 05:21:10;;;;;;;12.77;8.67;;;7.60;1.00;;;;;;5036065;28;20557;-77
2021/03/31 05:23:36;;;;;;;19.20;9.73;;;7.70;99.90;;;;;;5023335;28;21034;-77
2021/03/31 05:26:02;;;;;;;12.40;9.33;;;7.60;59.10;;;;;;5055255;28;20301;-77
2021/03/31 05:28:28;;;;;;;13.20;9.00;;;7.60;99.90;;;;;;5040261;28;20209;-80
2021/03/31 05:30:54;;;;;;;10.23;8.27;;;7.50;1.00;;;;;;5043371;28;20469;-77
2021/03/31 05:33:20;;;;;;;19.33;9.50;;;7.50;1.00;;;;;;5048153;28;20884;-77
2021/03/31 05:35:46;;;;;;;11.93;7.77;;;7.50;1.00;;;;;;5042314;28;20598;-77
2021/03/31 05:38:11;;;;;;;12.93;8.77;;;7.70;50.30;;;;;;5034834;28;20445;-77
2021/03/31 05:40:37;;;;;;;9.43;7.50;;;7.90;1.00;;;;;;5049716;28;20427;-76
2021/03/31 05:43:03;;;;;;;15.20;8.27;;;8.10;99.90;;;;;;5036706;28;20862;-77
2021/03/31 05:45:31;;;;;;;11.90;8.73;;;8.20;1.00;;;;;;5056939;28;21001;-77
2021/03/31 05:47:58;;;;;;;13.47;8.30;;;8.30;1.00;;;;;;5045972;28;20417;-77
2021/03/31 05:50:24;;;;;;;12.20;8.20;;;8.60;99.90;;;;;;5039947;28;20416;-78
2021/03/31 05:52:50;;;;;;;10.57;8.30;;;8.90;99.90;;;;;;5051218;28;20819;-78
2021/03/31 05:55:17;;;;;;;18.80;12.60;;;9.10;99.90;;;;;;5033447;28;20423;-78
2021/03/31 05:57:44;;;;;;;14.00;9.70;;;9.20;99.90;;;;;;5025639;28;20616;-77
2021/03/31 06:00:19;;;;;;;12.93;9.40;;;9.40;1.00;;;;;;5066310;28;20423;-78
2021/03/31 06:02:47;;;;;;;18.53;10.00;;;9.60;15.90;;;;;;5044939;28;20421;-79
2021/03/31 06:05:14;;;;;;;14.20;9.87;;;9.80;99.90;;;;;;5068476;28;20427;-77
2021/03/31 06:07:48;;;;;;;12.73;9.07;;;10.10;68.80;;;;;;5064166;28;20411;-78
2021/03/31 06:10:20;;;;;;;23.43;11.23;;;10.30;1.00;;;;;;5042414;28;20431;-78
2021/03/31 06:12:52;;;;;;;21.33;10.80;;;10.60;1.00;;;;;;5067198;28;20403;-78
2021/03/31 06:15:39;;;;;;;23.30;10.90;;;11.10;99.90;;;;;;5065593;28;20906;-78
2021/03/31 06:18:08;;;;;;;17.37;10.63;;;11.30;99.90;;;;;;5054911;28;20376;-78
2021/03/31 06:20:37;;;;;;;15.30;10.90;;;11.70;99.90;;;;;;5071814;28;21247;-78
2021/03/31 06:25:44;;;;;;;17.20;10.73;;;12.70;1.00;;;;;;5050835;28;20549;-78
2021/03/31 06:28:10;;;;;;;15.10;10.47;;;13.70;1.00;;;;;;5054793;28;20917;-78
2021/03/31 06:30:36;;;;;;;16.87;11.10;;;15.20;1.00;;;;;;5029625;28;20467;-78
2021/03/31 06:33:03;;;;;;;17.33;11.63;;;16.70;1.00;;;;;;5060732;28;20753;-77
2021/03/31 06:35:29;;;;;;;19.50;11.47;;;18.10;1.00;;;;;;5045187;28;20435;-78
2021/03/31 06:38:08;;;;;;;15.70;7.87;;;19.60;1.00;;;;;;5070900;28;20403;-78
2021/03/31 06:43:27;;;;;;;18.10;13.23;;;21.90;1.00;;;;;;5072380;28;20399;-78
2021/03/31 06:45:58;;;;;;;13.47;11.17;;;23.00;1.00;;;;;;5048967;28;21145;-78
2021/03/31 06:48:27;;;;;;;11.03;9.00;;;23.90;1.00;;;;;;5045688;28;20419;-77
2021/03/31 06:50:53;;;;;;;14.03;8.77;;;24.60;1.00;;;;;;5065010;28;20493;-77
2021/03/31 06:53:30;;;;;;;10.17;8.10;;;25.40;1.00;;;;;;5053425;28;20402;-78
2021/03/31 06:55:59;;;;;;;11.90;7.00;;;25.30;1.00;;;;;;5068770;28;21044;-77
2021/03/31 06:58:25;;;;;;;11.27;9.37;;;23.90;1.00;;;;;;5067805;28;20449;-78
2021/03/31 07:00:51;;;;;;;13.33;9.27;;;24.40;1.00;;;;;;5030370;28;20554;-77
2021/03/31 07:03:19;;;;;;;11.17;8.70;;;25.50;1.00;;;;;;5030066;28;20431;-78
2021/03/31 07:05:46;;;;;;;9.00;7.43;;;26.80;1.00;;;;;;5036304;28;20710;-79
2021/03/31 07:08:15;;;;;;;12.23;7.10;;;27.80;1.00;;;;;;5057366;28;20493;-79
2021/03/31 07:10:54;;;;;;;12.97;8.43;;;28.10;1.00;;;;;;5063115;28;20405;-79
2021/03/31 07:13:35;;;;;;;11.20;7.37;;;28.20;1.00;;;;;;5071769;28;21086;-78
2021/03/31 07:16:02;;;;;;;10.10;8.07;;;28.20;1.00;;;;;;5060323;28;20431;-78
2021/03/31 07:18:30;;;;;;;9.70;7.53;;;29.00;1.00;;;;;;5070971;28;20434;-79
2021/03/31 07:20:56;;;;;;;15.10;7.33;;;29.40;1.00;;;;;;5054181;28;20577;-79
2021/03/31 07:23:23;;;;;;;10.50;6.70;;;28.90;1.00;;;;;;5032558;28;20453;-77
2021/03/31 07:25:50;;;;;;;10.83;7.13;;;28.80;1.00;;;;;;5051265;28;20426;-78
2021/03/31 07:28:28;;;;;;;10.43;6.87;;;27.90;1.00;;;;;;5047598;28;20401;-78
2021/03/31 07:30:53;;;;;;;12.47;7.73;;;28.80;1.00;;;;;;5065640;28;20419;-78
2021/03/31 07:33:23;;;;;;;8.40;7.10;;;28.10;1.00;;;;;;5070929;28;20902;-78
2021/03/31 07:35:50;;;;;;;15.70;8.10;;;29.00;1.00;;;;;;5069558;28;20212;-79
2021/03/31 07:38:19;;;;;;;15.30;7.60;;;29.30;1.00;;;;;;5070970;28;20525;-78
2021/03/31 07:40:46;;;;;;;9.83;7.27;;;27.60;1.00;;;;;;5021912;28;20497;-78
2021/03/31 07:43:34;;;;;;;12.50;8.40;;;28.00;1.00;;;;;;5052807;28;20407;-78
2021/03/31 07:46:10;;;;;;;9.03;7.57;;;28.50;1.00;;;;;;5053144;28;20587;-78
2021/03/31 07:48:38;;;;;;;9.80;8.80;;;29.80;1.00;;;;;;5069679;28;20402;-78
2021/03/31 07:51:18;;;;;;;16.03;9.43;;;30.40;1.00;;;;;;5037817;28;21796;-77
2021/03/31 07:53:46;;;;;;;9.93;8.73;;;30.50;1.00;;;;;;5036793;28;20421;-78
2021/03/31 07:56:14;;;;;;;13.63;8.57;;;30.20;1.00;;;;;;5074261;28;20903;-78
2021/03/31 07:58:40;;;;;;;10.07;8.50;;;30.90;1.00;;;;;;5044759;28;20487;-78
2021/03/31 08:01:09;;;;;;;13.33;8.40;;;31.00;1.00;;;;;;5033222;28;20519;-78
2021/03/31 08:03:43;;;;;;;10.17;9.13;;;30.70;1.00;;;;;;5022322;28;20993;-78
2021/03/31 08:06:15;;;;;;;16.70;10.17;;;31.30;1.00;;;;;;5032130;28;20415;-78
2021/03/31 08:08:50;;;;;;;16.00;9.03;;;31.10;1.00;;;;;;5050750;28;20399;-78
2021/03/31 08:11:43;;;;;;;9.47;8.57;;;30.00;1.00;;;;;;5046936;28;20407;-77
2021/03/31 08:14:19;;;;;;;9.63;8.50;;;30.30;1.00;;;;;;5034093;28;20424;-78
2021/03/31 08:16:48;;;;;;;10.80;9.80;;;30.60;1.00;;;;;;5050487;28;20424;-77
2021/03/31 08:19:29;;;;;;;11.40;9.47;;;30.70;1.00;;;;;;5048284;28;20524;-77
2021/03/31 08:21:57;;;;;;;12.73;9.07;;;28.60;1.00;;;;;;5016341;28;20441;-78
2021/03/31 08:24:45;;;;;;;10.43;9.43;;;30.50;1.00;;;;;;5018699;28;20451;-78
2021/03/31 08:27:11;;;;;;;9.90;9.00;;;29.00;1.00;;;;;;5027154;28;20984;-77
2021/03/31 08:29:37;;;;;;;9.60;8.60;;;29.80;1.00;;;;;;5024239;28;20450;-77
2021/03/31 08:32:06;;;;;;;10.97;8.70;;;31.20;1.00;;;;;;5043428;28;20508;-78
2021/03/31 08:34:34;;;;;;;10.47;9.57;;;31.00;1.00;;;;;;5030246;28;21557;-78
2021/03/31 08:37:06;;;;;;;9.53;8.70;;;31.60;1.00;;;;;;4993288;28;21053;-78
2021/03/31 08:39:32;;;;;;;9.40;8.60;;;32.40;1.00;;;;;;5050547;28;20547;-78
2021/03/31 08:41:59;;;;;;;12.23;9.57;;;32.80;1.00;;;;;;5047158;28;20936;-77
2021/03/31 08:44:31;;;;;;;9.83;8.57;;;31.10;1.00;;;;;;5026666;28;20416;-78
2021/03/31 08:47:14;;;;;;;15.50;9.43;;;30.40;1.00;;;;;;5016811;28;21363;-78
2021/03/31 08:49:41;;;;;;;12.40;8.40;;;31.40;1.00;;;;;;5067194;28;20435;-78
2021/03/31 08:52:09;;;;;;;9.60;8.70;;;31.80;1.00;;;;;;5028053;28;20404;-78
2021/03/31 08:54:40;;;;;;;10.67;9.13;;;30.30;1.00;;;;;;5033520;28;20400;-78
2021/03/31 08:57:37;;;;;;;13.13;8.57;;;29.20;1.00;;;;;;5048730;28;20591;-77
2021/03/31 09:00:07;;;;;;;10.30;8.47;;;28.20;1.00;;;;;;5023780;28;20538;-77
2021/03/31 09:02:36;;;;;;;10.40;9.47;;;28.90;1.00;;;;;;5049038;28;20987;-77
2021/03/31 09:05:04;;;;;;;8.23;7.53;;;29.50;1.00;;;;;;5048632;28;20437;-78
2021/03/31 09:07:30;;;;;;;9.20;8.50;;;31.40;1.00;;;;;;5016233;28;20892;-78
2021/03/31 09:09:56;;;;;;;9.47;8.57;;;31.30;1.00;;;;;;5031864;28;20423;-78
2021/03/31 09:12:25;;;;;;;13.40;9.20;;;31.70;1.00;;;;;;5047417;28;20213;-78
2021/03/31 09:14:56;;;;;;;8.47;7.80;;;30.70;1.00;;;;;;5032595;28;20470;-78
2021/03/31 09:17:43;;;;;;;10.67;8.13;;;31.70;1.00;;;;;;4991864;28;20441;-78
2021/03/31 09:20:12;;;;;;;9.70;7.30;;;31.00;1.00;;;;;;5045830;28;20472;-77
2021/03/31 09:22:38;;;;;;;10.43;7.63;;;31.70;1.00;;;;;;5029010;28;20404;-78
2021/03/31 09:25:06;;;;;;;8.73;7.93;;;29.80;1.00;;;;;;5027599;28;21324;-79
2021/03/31 09:27:33;;;;;;;7.40;6.80;;;32.50;1.00;;;;;;5048710;28;20546;-78
2021/03/31 09:30:08;;;;;;;8.10;6.93;;;32.90;1.00;;;;;;5048269;28;20427;-78
2021/03/31 09:32:35;;;;;;;7.50;7.00;;;32.80;1.00;;;;;;5050459;28;20421;-78
2021/03/31 09:35:15;;;;;;;8.57;7.77;;;33.40;1.00;;;;;;5049608;28;20431;-78
2021/03/31 09:37:45;;;;;;;8.47;7.60;;;32.20;1.00;;;;;;5048230;28;20439;-77
2021/03/31 09:40:25;;;;;;;8.27;7.57;;;31.70;1.00;;;;;;5047000;28;20452;-77
2021/03/31 09:42:59;;;;;;;8.90;6.90;;;32.00;1.00;;;;;;5046405;28;20392;-77
2021/03/31 09:45:30;;;;;;;8.47;6.67;;;30.90;1.00;;;;;;5025711;28;20415;-77
2021/03/31 09:47:57;;;;;;;8.10;7.43;;;32.50;1.00;;;;;;5047642;28;21262;-77
2021/03/31 09:50:24;;;;;;;7.10;6.50;;;31.50;1.00;;;;;;5014867;28;20975;-78
2021/03/31 09:52:55;;;;;;;9.03;7.40;;;31.10;1.00;;;;;;5008643;28;20980;-78
2021/03/31 09:55:22;;;;;;;8.13;7.33;;;33.00;1.00;;;;;;5042609;28;21527;-77
2021/03/31 09:57:50;;;;;;;7.50;7.00;;;34.10;1.00;;;;;;5031066;28;20423;-77
2021/03/31 10:00:19;;;;;;;8.90;6.73;;;31.40;1.00;;;;;;5060288;28;20429;-77
2021/03/31 10:02:46;;;;;;;9.37;6.60;;;32.60;1.00;;;;;;5051947;28;20841;-77
2021/03/31 10:05:20;;;;;;;8.17;7.17;;;31.80;1.00;;;;;;5034055;28;20532;-78
2021/03/31 10:08:21;;;;;;;8.23;7.53;;;31.40;1.00;;;;;;5064884;28;20558;-77
2021/03/31 10:10:53;;;;;;;7.80;7.20;;;30.50;1.00;;;;;;5050604;28;20418;-77
2021/03/31 10:13:21;;;;;;;7.30;6.60;;;31.30;1.00;;;;;;5036469;28;20500;-77
2021/03/31 10:15:57;;;;;;;8.07;7.30;;;31.70;1.00;;;;;;5049413;28;20421;-77
2021/03/31 10:18:24;;;;;;;7.53;6.93;;;33.00;1.00;;;;;;5048988;28;21299;-77
2021/03/31 10:20:50;;;;;;;8.53;6.47;;;33.90;1.00;;;;;;5069921;28;21050;-77
2021/03/31 10:23:34;;;;;;;13.77;7.47;;;33.80;1.00;;;;;;5046095;28;20465;-77
2021/03/31 10:26:29;;;;;;;8.23;7.53;;;31.40;1.00;;;;;;5031678;28;20430;-78
2021/03/31 10:29:17;;;;;;;8.00;7.30;;;33.60;1.00;;;;;;5048750;28;20806;-78
2021/03/31 10:31:45;;;;;;;7.80;7.10;;;35.00;1.00;;;;;;5069497;28;20487;-78
2021/03/31 10:34:13;;;;;;;8.80;7.10;;;36.00;1.00;;;;;;5051685;28;20406;-78
2021/03/31 10:50:32;;;;;;;6.30;5.90;;;30.30;1.00;;;;;;5037496;28;20442;-78
2021/03/31 10:53:00;;;;;;;7.67;7.07;;;30.90;1.00;;;;;;5050423;28;21560;-77
2021/03/31 10:55:26;;;;;;;8.37;7.57;;;32.70;1.00;;;;;;5042647;28;20447;-78
2021/03/31 10:57:52;;;;;;;8.13;7.27;;;33.10;1.00;;;;;;5051935;28;20422;-77
2021/03/31 11:00:18;;;;;;;7.17;6.50;;;32.90;1.00;;;;;;5044209;28;20458;-78
2021/03/31 11:02:43;;;;;;;7.27;6.60;;;33.00;1.00;;;;;;5051443;28;20257;-78
2021/03/31 11:05:09;;;;;;;9.47;7.47;;;31.60;1.00;;;;;;5055944;28;20528;-78
2021/03/31 11:07:35;;;;;;;7.87;7.17;;;31.80;1.00;;;;;;5041876;28;20198;-77
2021/03/31 11:10:02;;;;;;;8.67;7.43;;;33.20;1.00;;;;;;5051021;28;20451;-78
2021/03/31 11:12:28;;;;;;;7.30;6.63;;;32.40;1.00;;;;;;5048449;28;20746;-78
2021/03/31 11:14:54;;;;;;;7.63;7.03;;;33.00;1.00;;;;;;5057514;28;20845;-78
2021/03/31 11:17:27;;;;;;;7.97;7.27;;;32.20;1.00;;;;;;5067351;28;20692;-78
2021/03/31 11:25:54;;;;;;;7.80;7.20;;;34.20;1.00;;;;;;5033221;28;20450;-78
2021/03/31 11:28:21;;;;;;;8.03;7.23;;;32.70;1.00;;;;;;5050288;28;20995;-78
2021/03/31 11:30:47;;;;;;;7.73;7.13;;;33.60;1.00;;;;;;5039500;28;20825;-78
2021/03/31 11:33:13;;;;;;;7.37;6.70;;;34.00;1.00;;;;;;5066205;28;20414;-78
2021/03/31 11:35:38;;;;;;;15.07;9.60;;;32.20;1.00;;;;;;5033574;28;20833;-77
2021/03/31 11:38:04;;;;;;;7.57;6.70;;;31.20;1.00;;;;;;5034557;28;20505;-77
2021/03/31 11:40:30;;;;;;;7.47;6.87;;;30.90;1.00;;;;;;5042815;28;20209;-77
2021/03/31 11:42:56;;;;;;;9.20;7.80;;;31.50;1.00;;;;;;5059860;28;20410;-77
2021/03/31 11:45:22;;;;;;;9.37;7.80;;;30.70;1.00;;;;;;5065415;28;20451;-77
2021/03/31 11:47:48;;;;;;;9.40;7.17;;;31.20;1.00;;;;;;5046959;28;20216;-77
2021/03/31 11:50:14;;;;;;;7.07;6.37;;;31.90;1.00;;;;;;5047115;28;20462;-77
2021/03/31 11:52:40;;;;;;;7.23;6.63;;;32.60;1.00;;;;;;5065155;28;20715;-77
2021/03/31 11:55:06;;;;;;;6.40;5.90;;;33.60;1.00;;;;;;5069407;28;20255;-77
2021/03/31 11:57:32;;;;;;;9.73;8.83;;;33.10;1.00;;;;;;5039652;28;20814;-77
2021/03/31 11:59:58;;;;;;;8.63;7.03;;;30.90;1.00;;;;;;5028651;28;20447;-77
2021/03/31 12:02:24;;;;;;;6.80;6.30;;;31.10;1.00;;;;;;5015140;28;20209;-77
2021/03/31 12:04:50;;;;;;;9.20;7.13;;;30.60;1.00;;;;;;5004733;28;20535;-77
2021/03/31 12:07:18;;;;;;;10.20;7.00;;;30.30;1.00;;;;;;5031384;28;20324;-77
2021/03/31 12:09:44;;;;;;;13.37;12.07;;;32.00;1.00;;;;;;5024354;28;20222;-77
2021/03/31 12:12:12;;;;;;;8.47;7.67;;;30.90;1.00;;;;;;5036712;28;20432;-77
2021/03/31 12:14:40;;;;;;;10.50;7.80;;;30.70;1.00;;;;;;5029272;28;20206;-77
2021/03/31 12:17:06;;;;;;;7.00;6.33;;;31.60;1.00;;;;;;5034199;28;20420;-77
2021/03/31 12:19:32;;;;;;;5.53;5.23;;;31.60;1.00;;;;;;5045870;28;21166;-77
2021/03/31 12:21:58;;;;;;;7.43;5.93;;;32.90;1.00;;;;;;5016345;28;20699;-78
2021/03/31 12:24:24;;;;;;;6.63;6.03;;;33.60;1.00;;;;;;5030210;28;20454;-77
2021/03/31 12:26:51;;;;;;;9.30;6.10;;;33.60;1.00;;;;;;5031037;28;20451;-77
2021/03/31 12:29:18;;;;;;;9.40;5.80;;;32.90;1.00;;;;;;5031972;28;20470;-77
2021/03/31 12:31:44;;;;;;;6.17;5.60;;;33.50;1.00;;;;;;5029847;28;20400;-77
2021/03/31 12:34:10;;;;;;;6.37;5.77;;;31.90;1.00;;;;;;5030565;28;20432;-77
2021/03/31 12:36:36;;;;;;;5.53;5.17;;;30.20;1.00;;;;;;5032981;28;20439;-76
2021/03/31 12:39:04;;;;;;;8.10;6.70;;;30.40;1.00;;;;;;4992436;28;20623;-77
2021/03/31 12:41:31;;;;;;;10.10;6.37;;;30.70;1.00;;;;;;5048728;28;20431;-77
2021/03/31 12:43:57;;;;;;;6.97;6.30;;;31.20;1.00;;;;;;5034703;28;20495;-77
2021/03/31 12:46:23;;;;;;;7.10;6.50;;;31.90;1.00;;;;;;5009949;28;20408;-77
2021/03/31 12:48:49;;;;;;;7.17;6.40;;;31.50;1.00;;;;;;4998346;28;20423;-78
2021/03/31 12:51:20;;;;;;;6.60;6.17;;;30.40;1.00;;;;;;5020492;28;20942;-78
2021/03/31 12:53:51;;;;;;;7.47;6.40;;;30.90;1.00;;;;;;5004780;28;20206;-78
2021/03/31 12:56:18;;;;;;;6.60;5.33;;;31.40;1.00;;;;;;5031051;28;20404;-77
2021/03/31 12:58:44;;;;;;;5.63;5.13;;;30.50;1.00;;;;;;5014827;28;20464;-77
2021/03/31 13:01:15;;;;;;;6.50;5.50;;;29.90;1.00;;;;;;5049652;28;20600;-77
2021/03/31 13:03:41;;;;;;;5.83;4.90;;;30.50;1.00;;;;;;5006448;28;20391;-78
2021/03/31 13:06:07;;;;;;;5.43;4.67;;;30.30;1.00;;;;;;5032115;28;20422;-77
2021/03/31 13:08:33;;;;;;;5.60;5.20;;;30.00;1.00;;;;;;5026666;28;20229;-77
2021/03/31 13:10:59;;;;;;;4.70;4.40;;;30.70;1.00;;;;;;5059380;28;20271;-77
2021/03/31 13:39:53;;;;;;;7.10;5.60;;;29.50;1.00;;;;;;524505;26;20768;-84
2021/03/31 13:42:19;;;;;;;6.13;5.53;;;29.70;1.00;;;;;;4989373;28;21243;-83
2021/03/31 13:44:47;;;;;;;5.93;5.43;;;30.40;1.00;;;;;;4981410;28;20485;-85
2021/03/31 13:50:17;;;;;;;6.60;4.83;;;32.00;1.00;;;;;;4910922;29;20457;-83
2021/03/31 13:52:45;;;;;;;6.63;6.13;;;32.10;1.00;;;;;;4924082;28;20936;-83
2021/03/31 13:55:16;;;;;;;7.53;6.43;;;32.70;1.00;;;;;;4938541;28;20441;-84